Time;durP1;ratioP1;P1;durP2;ratioP2;P2;SDS_P1;SDS_P2;PMS_P1;PMS_P2;Temp;Humidity;BMP_temperature;BMP_pressure;BME280_temperature;BME280_humidity;BME280_pressure;Samples;Min_cycle;Max_cycle;Signal;HPM_P1;HPM_P2
2022/04/01 00:00:09;;;;;;;19.00;6.57;;;384.10;2329.60;;;;;;5073684;28;20384;-75
2022/04/01 00:02:36;;;;;;;16.85;7.38;;;384.20;2329.60;;;;;;5073955;28;20024;-76
2022/04/01 00:05:03;;;;;;;14.80;6.43;;;384.20;2329.60;;;;;;5064363;28;20021;-75
2022/04/01 00:07:29;;;;;;;14.45;6.38;;;384.10;2329.60;;;;;;5057476;28;20024;-75
2022/04/01 00:09:54;;;;;;;18.25;6.25;;;384.00;2329.60;;;;;;5071586;28;20027;-75
2022/04/01 00:12:20;;;;;;;16.92;7.07;;;384.00;2329.60;;;;;;5071671;28;20033;-75
2022/04/01 00:14:46;;;;;;;21.85;6.55;;;384.00;2329.60;;;;;;5105179;28;20032;-75
2022/04/01 00:17:12;;;;;;;22.60;7.30;;;384.00;2329.60;;;;;;5072522;28;20031;-76
2022/04/01 00:19:38;;;;;;;15.88;7.03;;;359.30;2329.60;;;;;;5072431;28;20033;-75
2022/04/01 00:22:05;;;;;;;16.70;9.07;;;384.00;2329.60;;;;;;5071719;28;20032;-76
2022/04/01 00:24:32;;;;;;;17.25;9.57;;;359.20;2329.60;;;;;;5072326;28;20025;-75
2022/04/01 00:26:58;;;;;;;22.83;13.75;;;359.20;2329.60;;;;;;5073498;28;20017;-75
2022/04/01 00:29:24;;;;;;;19.58;8.55;;;359.20;2329.60;;;;;;5077305;28;20074;-75
2022/04/01 00:32:01;;;;;;;17.98;6.55;;;359.10;2329.60;;;;;;5072918;28;20047;-76
2022/04/01 00:34:31;;;;;;;16.73;6.63;;;359.00;2329.60;;;;;;5072827;28;20024;-76
2022/04/01 00:36:59;;;;;;;16.20;7.07;;;359.00;2329.60;;;;;;5072656;28;20060;-77
2022/04/01 00:39:29;;;;;;;15.93;6.97;;;359.00;2329.60;;;;;;5072605;28;20020;-76
2022/04/01 00:41:55;;;;;;;22.17;7.35;;;359.10;2329.60;;;;;;5071319;28;20155;-76
2022/04/01 00:44:26;;;;;;;22.95;8.25;;;359.20;2329.60;;;;;;5072338;28;20024;-77
2022/04/01 00:46:57;;;;;;;30.15;8.30;;;359.20;2329.60;;;;;;5072508;28;20024;-76
2022/04/01 00:49:26;;;;;;;20.25;8.50;;;359.20;2329.60;;;;;;5072255;28;20025;-75
2022/04/01 00:51:54;;;;;;;14.50;7.03;;;359.20;2329.60;;;;;;5072281;28;20032;-76
2022/04/01 00:54:20;;;;;;;16.60;6.63;;;359.10;2329.60;;;;;;5071164;28;20376;-76
2022/04/01 00:56:46;;;;;;;18.23;6.72;;;359.00;2329.60;;;;;;5070986;28;20487;-77
2022/04/01 00:59:12;;;;;;;13.43;5.82;;;359.00;2329.60;;;;;;5072395;28;20028;-77
2022/04/01 01:01:40;;;;;;;25.95;7.72;;;359.00;2329.60;;;;;;5072396;28;20028;-77
2022/04/01 01:04:07;;;;;;;21.55;7.07;;;359.00;2329.60;;;;;;5072389;28;20048;-78
2022/04/01 01:06:41;;;;;;;19.23;6.80;;;358.90;2329.60;;;;;;5072284;28;20066;-76
2022/04/01 01:09:07;;;;;;;24.67;7.63;;;358.90;2329.60;;;;;;5072304;28;20032;-77
2022/04/01 01:11:36;;;;;;;19.50;7.93;;;358.90;2329.60;;;;;;5072215;28;20043;-76
2022/04/01 01:14:04;;;;;;;16.55;7.28;;;358.80;2329.60;;;;;;5072137;28;20040;-76
2022/04/01 01:16:29;;;;;;;17.77;8.60;;;358.80;2329.60;;;;;;5070836;28;20032;-76
2022/04/01 01:19:07;;;;;;;19.85;11.80;;;358.70;2329.60;;;;;;5070494;28;20033;-76
2022/04/01 01:21:34;;;;;;;16.48;8.52;;;358.70;2329.60;;;;;;5071889;28;20028;-76
2022/04/01 01:24:03;;;;;;;25.95;10.00;;;358.60;2329.60;;;;;;5070356;28;20039;-76
2022/04/01 01:26:29;;;;;;;20.98;9.73;;;358.40;2329.60;;;;;;5071752;28;20515;-76
2022/04/01 01:28:57;;;;;;;20.13;10.25;;;358.40;2329.60;;;;;;5070587;28;20418;-76
2022/04/01 01:31:23;;;;;;;18.02;10.23;;;333.70;2329.60;;;;;;5074725;28;20030;-76
2022/04/01 01:33:50;;;;;;;21.88;11.63;;;333.70;2329.60;;;;;;5071890;28;20107;-75
2022/04/01 01:36:16;;;;;;;23.85;11.90;;;333.70;2329.60;;;;;;5071721;28;20402;-75
2022/04/01 01:38:42;;;;;;;21.80;9.65;;;333.70;2329.60;;;;;;5071900;28;20024;-75
2022/04/01 01:41:08;;;;;;;17.95;10.27;;;333.70;2329.60;;;;;;5070540;28;20029;-75
2022/04/01 01:43:34;;;;;;;22.85;11.88;;;333.70;2329.60;;;;;;5070539;28;20028;-75
2022/04/01 01:46:00;;;;;;;20.67;10.20;;;333.60;2329.60;;;;;;5071859;28;20029;-75
2022/04/01 01:48:26;;;;;;;20.98;11.15;;;333.60;2329.60;;;;;;5092952;28;20033;-76
2022/04/01 01:56:19;;;;;;;19.83;9.75;;;333.40;2329.60;;;;;;5051782;28;19912;-76
2022/04/01 01:58:45;;;;;;;16.63;8.95;;;333.20;2329.60;;;;;;5051272;28;20029;-75
2022/04/01 02:01:12;;;;;;;20.20;10.55;;;333.30;2329.60;;;;;;5050333;28;20031;-75
2022/04/01 02:03:38;;;;;;;21.85;10.15;;;333.30;2329.60;;;;;;5051630;28;20029;-76
2022/04/01 02:06:04;;;;;;;28.80;12.93;;;333.30;2329.60;;;;;;5051605;28;20036;-75
2022/04/01 02:08:36;;;;;;;26.05;15.95;;;333.40;2329.60;;;;;;5051250;28;20025;-76
2022/04/01 02:11:02;;;;;;;13.13;8.15;;;333.40;2329.60;;;;;;5050129;28;20057;-75
2022/04/01 02:13:28;;;;;;;14.25;9.00;;;333.20;2329.60;;;;;;5050011;28;20083;-75
2022/04/01 02:15:54;;;;;;;18.02;9.43;;;333.00;2329.60;;;;;;5051499;28;20025;-75
2022/04/01 02:18:23;;;;;;;23.30;8.82;;;333.00;2022.40;;;;;;5063559;28;20487;-75
2022/04/01 02:20:50;;;;;;;20.75;7.60;;;332.90;2329.60;;;;;;5071509;28;20032;-76
2022/04/01 02:23:16;;;;;;;20.90;9.70;;;332.90;2227.20;;;;;;5071537;28;20464;-77
2022/04/01 02:25:43;;;;;;;21.13;8.90;;;332.90;2150.40;;;;;;5071206;28;20024;-77
2022/04/01 02:28:10;;;;;;;17.73;9.82;;;333.00;2099.20;;;;;;5071405;28;20479;-76
2022/04/01 02:30:36;;;;;;;17.40;8.48;;;333.10;1996.80;;;;;;5070151;28;20028;-76
2022/04/01 02:33:02;;;;;;;19.90;9.57;;;333.10;2329.60;;;;;;5073072;28;20037;-76
2022/04/01 02:35:29;;;;;;;19.80;9.63;;;333.10;2329.60;;;;;;5073640;28;20040;-75
2022/04/01 02:37:55;;;;;;;17.55;8.93;;;333.10;2329.60;;;;;;5073895;28;20021;-77
2022/04/01 02:40:22;;;;;;;25.30;10.55;;;333.10;2329.60;;;;;;5075401;28;20507;-76
2022/04/01 02:42:53;;;;;;;17.63;9.05;;;333.10;2329.60;;;;;;5074777;28;20074;-75
2022/04/01 02:45:20;;;;;;;16.35;7.63;;;333.00;2329.60;;;;;;5073711;28;20024;-74
2022/04/01 02:47:45;;;;;;;20.92;10.23;;;333.00;2329.60;;;;;;5074752;28;20063;-76
2022/04/01 02:50:11;;;;;;;22.15;10.80;;;332.80;2329.60;;;;;;5073599;28;20052;-76
2022/04/01 02:52:37;;;;;;;22.42;12.82;;;332.80;2329.60;;;;;;5074617;28;20540;-76
2022/04/01 02:55:05;;;;;;;19.67;12.88;;;332.90;2329.60;;;;;;5075067;28;20530;-76
2022/04/01 02:57:31;;;;;;;23.52;14.32;;;332.80;2329.60;;;;;;5073757;28;20475;-76
2022/04/01 02:59:57;;;;;;;28.23;14.93;;;332.80;2329.60;;;;;;5073486;28;20029;-76
2022/04/01 03:02:22;;;;;;;27.45;14.45;;;332.80;2329.60;;;;;;5074634;28;20021;-76
2022/04/01 03:04:48;;;;;;;31.63;13.18;;;332.80;2329.60;;;;;;5073509;28;20459;-75
2022/04/01 03:07:14;;;;;;;18.85;12.70;;;332.80;2329.60;;;;;;5074752;28;20051;-76
2022/04/01 03:09:40;;;;;;;26.20;14.27;;;332.80;2329.60;;;;;;5074185;28;20024;-74
2022/04/01 03:12:07;;;;;;;20.55;10.88;;;308.00;2304.00;;;;;;5074624;28;20137;-76
2022/04/01 03:14:33;;;;;;;16.10;8.43;;;307.80;2304.00;;;;;;5073215;28;20055;-76
2022/04/01 03:16:59;;;;;;;20.00;9.52;;;307.50;2304.00;;;;;;5073874;28;20032;-75
2022/04/01 03:19:25;;;;;;;22.40;9.65;;;307.60;2304.00;;;;;;5074354;28;20393;-75
2022/04/01 03:21:50;;;;;;;16.52;8.48;;;307.50;2304.00;;;;;;5074404;28;20501;-75
2022/04/01 03:24:16;;;;;;;15.63;6.85;;;307.60;2304.00;;;;;;5074276;28;20483;-76
2022/04/01 03:26:42;;;;;;;15.52;7.03;;;307.70;2304.00;;;;;;5074327;28;20379;-76
2022/04/01 03:29:10;;;;;;;22.50;7.72;;;307.60;2304.00;;;;;;5074390;28;20029;-75
2022/04/01 03:31:37;;;;;;;17.85;7.07;;;307.70;2304.00;;;;;;5073955;28;20035;-75
2022/04/01 03:34:04;;;;;;;16.00;7.72;;;307.70;2304.00;;;;;;5074249;28;20078;-75
2022/04/01 03:36:30;;;;;;;17.13;8.18;;;307.80;2227.20;;;;;;5075338;28;20082;-75
2022/04/01 03:38:56;;;;;;;14.27;8.07;;;307.90;2304.00;;;;;;5072671;28;20025;-75
2022/04/01 03:41:22;;;;;;;20.40;8.85;;;307.90;2304.00;;;;;;5073777;28;20028;-75
2022/04/01 03:43:51;;;;;;;23.65;8.77;;;307.80;2278.40;;;;;;5073460;28;20021;-75
2022/04/01 03:46:20;;;;;;;24.17;13.95;;;307.90;1920.00;;;;;;5074255;28;20032;-75
2022/04/01 03:49:00;;;;;;;20.60;13.27;;;308.00;2304.00;;;;;;5073900;28;20020;-75
2022/04/01 03:51:28;;;;;;;25.13;15.45;;;307.90;2304.00;;;;;;5073788;28;20028;-76
2022/04/01 03:54:01;;;;;;;21.90;15.13;;;308.00;2304.00;;;;;;5072474;28;20024;-76
2022/04/01 03:56:34;;;;;;;22.90;14.80;;;332.80;2329.60;;;;;;5089411;28;20039;-76
2022/04/01 03:59:02;;;;;;;21.30;13.48;;;332.80;2329.60;;;;;;5073680;28;20507;-76
2022/04/01 04:01:28;;;;;;;31.65;18.02;;;332.80;2329.60;;;;;;5072691;28;20020;-77
2022/04/01 04:03:56;;;;;;;30.17;17.20;;;332.90;2329.60;;;;;;5073535;28;20074;-76
2022/04/01 04:06:23;;;;;;;31.40;14.70;;;332.90;2329.60;;;;;;5071923;28;20035;-76
2022/04/01 04:08:53;;;;;;;22.45;14.15;;;308.10;2304.00;;;;;;5072502;28;20035;-75
2022/04/01 04:11:24;;;;;;;48.47;29.63;;;308.10;2304.00;;;;;;5071080;28;20028;-76
2022/04/01 04:13:53;;;;;;;31.02;14.23;;;308.10;2304.00;;;;;;5071953;28;20097;-76
2022/04/01 04:16:19;;;;;;;32.45;18.73;;;308.00;2304.00;;;;;;5073007;28;20087;-75
2022/04/01 04:18:49;;;;;;;35.92;22.23;;;308.00;2304.00;;;;;;5073104;28;20155;-76
2022/04/01 04:21:40;;;;;;;27.27;15.52;;;307.90;2304.00;;;;;;5073353;28;20142;-75
2022/04/01 04:24:09;;;;;;;23.10;12.60;;;307.70;2304.00;;;;;;5073085;28;20024;-75
2022/04/01 04:26:48;;;;;;;23.73;12.27;;;307.70;2304.00;;;;;;5072966;28;20052;-78
2022/04/01 04:29:16;;;;;;;37.67;21.58;;;307.70;2304.00;;;;;;5072388;28;20384;-75
2022/04/01 04:31:57;;;;;;;27.80;14.63;;;307.60;2304.00;;;;;;5073512;28;20043;-75
2022/04/01 04:34:27;;;;;;;32.85;19.15;;;307.60;2304.00;;;;;;5072509;28;20107;-76
2022/04/01 04:36:57;;;;;;;35.60;20.05;;;307.70;2304.00;;;;;;5072975;28;20031;-76
2022/04/01 04:39:31;;;;;;;40.42;21.17;;;307.70;2304.00;;;;;;5063811;28;20017;-77
2022/04/01 04:41:57;;;;;;;28.13;18.77;;;307.80;2304.00;;;;;;5084907;28;20025;-78
2022/04/01 04:44:25;;;;;;;18.13;9.88;;;307.80;2304.00;;;;;;5052588;28;20044;-77
2022/04/01 04:46:53;;;;;;;23.27;10.70;;;307.60;2304.00;;;;;;5068714;28;20483;-77
2022/04/01 04:49:19;;;;;;;21.38;12.43;;;307.70;2278.40;;;;;;5052650;28;20029;-78
2022/04/01 04:51:48;;;;;;;25.30;10.73;;;307.60;2304.00;;;;;;5052419;28;20060;-76
2022/04/01 04:54:15;;;;;;;22.75;12.45;;;307.60;2304.00;;;;;;5070760;28;20445;-79
2022/04/01 04:56:41;;;;;;;28.15;13.88;;;307.60;2304.00;;;;;;5056256;28;20612;-77
2022/04/01 04:59:09;;;;;;;25.63;16.02;;;307.70;2304.00;;;;;;5070958;28;20028;-77
2022/04/01 05:02:02;;;;;;;32.78;16.67;;;307.70;2304.00;;;;;;5067757;28;20043;-76
2022/04/01 05:04:45;;;;;;;24.98;11.95;;;307.90;2304.00;;;;;;5071746;28;20037;-76
2022/04/01 05:07:21;;;;;;;24.90;15.07;;;307.80;2304.00;;;;;;5070296;28;20491;-77
2022/04/01 05:10:39;;;;;;;27.80;15.45;;;307.60;1971.20;;;;;;5072025;28;20021;-78
2022/04/01 05:13:08;;;;;;;34.88;21.05;;;307.90;2304.00;;;;;;5052010;28;20123;-77
2022/04/01 05:15:37;;;;;;;26.45;17.63;;;308.00;2304.00;;;;;;5069496;28;20052;-77
2022/04/01 05:18:16;;;;;;;30.17;17.23;;;308.00;2304.00;;;;;;5070386;28;20032;-76
2022/04/01 05:20:55;;;;;;;19.92;12.18;;;332.80;2329.60;;;;;;5068322;28;20480;-76
2022/04/01 05:23:46;;;;;;;29.42;14.05;;;333.00;2329.60;;;;;;5068376;28;20028;-77
2022/04/01 05:26:15;;;;;;;26.77;14.70;;;333.10;2329.60;;;;;;5062372;28;20523;-76
2022/04/01 05:29:02;;;;;;;28.80;13.45;;;333.20;2329.60;;;;;;5071474;28;20021;-76
2022/04/01 05:31:45;;;;;;;21.52;13.50;;;333.10;2329.60;;;;;;5067511;28;20017;-77
2022/04/01 05:34:16;;;;;;;21.33;14.90;;;333.10;2329.60;;;;;;5067404;28;20024;-75
2022/04/01 05:36:44;;;;;;;27.88;15.27;;;333.10;2329.60;;;;;;5070325;28;20063;-76
2022/04/01 05:39:12;;;;;;;28.48;20.92;;;333.40;2329.60;;;;;;5072126;28;20020;-76
2022/04/01 05:41:39;;;;;;;35.28;21.92;;;;;;;;;;5069202;28;20040;-77
2022/04/01 05:44:05;;;;;;;30.65;20.55;;;;;;;;;;5068679;28;20017;-78
2022/04/01 05:46:33;;;;;;;38.63;21.52;;;;;;;;;;5069795;28;20506;-77
2022/04/01 05:49:00;;;;;;;34.20;21.02;;;;;;;;;;5069020;28;20030;-77
2022/04/01 05:51:29;;;;;;;32.78;19.88;;;358.70;2329.60;;;;;;5068875;28;20028;-76
2022/04/01 05:53:56;;;;;;;29.38;20.10;;;;;;;;;;5068546;28;20117;-76
2022/04/01 05:56:22;;;;;;;33.35;19.77;;;;;;;;;;5069474;28;20024;-76
2022/04/01 05:58:49;;;;;;;31.58;19.02;;;;;;;;;;5071252;28;20021;-75
2022/04/01 06:01:25;;;;;;;39.75;25.02;;;;;;;;;;5070318;28;20016;-75
2022/04/01 06:03:51;;;;;;;35.75;24.23;;;;;;;;;;5067010;28;20070;-76
2022/04/01 06:06:22;;;;;;;39.00;23.42;;;;;;;;;;5069145;28;20029;-75
2022/04/01 06:09:15;;;;;;;56.05;31.50;;;359.20;2329.60;;;;;;5071503;28;20025;-76
2022/04/01 06:11:58;;;;;;;51.57;31.23;;;;;;;;;;5075319;28;20024;-75
2022/04/01 06:14:40;;;;;;;45.00;28.10;;;;;;;;;;5074625;28;20347;-74
2022/04/01 06:17:09;;;;;;;52.05;26.42;;;;;;;;;;5067085;28;20028;-76
2022/04/01 06:19:45;;;;;;;35.80;21.38;;;359.30;2329.60;;;;;;5070549;28;20028;-76
2022/04/01 06:22:20;;;;;;;43.45;22.42;;;359.30;2329.60;;;;;;5055133;28;20365;-77
2022/04/01 06:25:16;;;;;;;46.78;23.92;;;;;;;;;;5055485;28;20048;-76
2022/04/01 06:27:42;;;;;;;61.33;35.72;;;358.90;2329.60;;;;;;5065120;28;20028;-77
2022/04/01 06:30:10;;;;;;;41.80;22.85;;;;;;;;;;5073292;28;20031;-78
2022/04/01 06:32:56;;;;;;;52.78;26.08;;;;;;;;;;5072857;28;20076;-77
2022/04/01 06:35:22;;;;;;;37.45;25.60;;;;;;;;;;5054693;28;20107;-77
2022/04/01 06:37:59;;;;;;;43.85;28.05;;;358.40;2329.60;;;;;;5072901;28;20424;-76
2022/04/01 06:40:36;;;;;;;37.45;24.15;;;358.40;2329.60;;;;;;5062310;28;20029;-77
2022/04/01 06:43:06;;;;;;;36.72;25.60;;;358.40;2329.60;;;;;;5071872;28;20100;-75
2022/04/01 06:45:32;;;;;;;60.22;25.13;;;358.80;2329.60;;;;;;5074010;28;20499;-76
2022/04/01 06:47:58;;;;;;;44.45;22.40;;;;;;;;;;5105907;28;20937;-75
2022/04/01 06:50:24;;;;;;;57.55;35.58;;;;;;;;;;5073879;28;20069;-75
2022/04/01 06:52:51;;;;;;;51.10;31.60;;;;;;;;;;5073709;28;20048;-75
2022/04/01 06:55:17;;;;;;;55.80;25.73;;;;;;;;;;5072879;28;20077;-75
2022/04/01 06:57:43;;;;;;;42.72;27.45;;;;;;;;;;5072623;28;20029;-76
2022/04/01 07:00:12;;;;;;;56.85;34.47;;;;;;;;;;5073991;28;20020;-76
2022/04/01 07:02:38;;;;;;;49.22;30.00;;;;;;;;;;5071157;28;20031;-76
2022/04/01 07:05:05;;;;;;;51.20;26.60;;;384.30;2329.60;;;;;;5072173;28;20098;-76
2022/04/01 07:07:32;;;;;;;67.55;34.70;;;384.30;2329.60;;;;;;5070463;28;20029;-76
2022/04/01 07:09:57;;;;;;;51.25;25.95;;;384.30;2329.60;;;;;;5072264;28;20026;-77
2022/04/01 07:12:23;;;;;;;52.60;29.08;;;384.30;2329.60;;;;;;5072014;28;20119;-75
2022/04/01 07:14:50;;;;;;;63.28;36.55;;;384.20;2329.60;;;;;;5077642;28;20124;-75
2022/04/01 07:17:16;;;;;;;39.67;22.02;;;384.20;2329.60;;;;;;5069862;28;20074;-77
2022/04/01 07:19:41;;;;;;;49.53;21.42;;;384.00;2329.60;;;;;;5071720;28;20379;-78
2022/04/01 07:22:07;;;;;;;34.97;17.33;;;384.30;2329.60;;;;;;5072245;28;20025;-77
2022/04/01 07:24:34;;;;;;;37.80;19.85;;;384.30;2329.60;;;;;;5073433;28;20020;-76
2022/04/01 07:27:00;;;;;;;36.50;19.17;;;409.60;2355.20;;;;;;5072686;28;20124;-77
2022/04/01 07:29:27;;;;;;;38.70;18.40;;;;;;;;;;5072912;28;20107;-78
2022/04/01 07:34:41;;;;;;;43.15;18.63;;;435.40;2355.20;;;;;;5072641;28;20040;-77
2022/04/01 07:37:08;;;;;;;49.55;18.00;;;435.90;2355.20;;;;;;5071358;28;20021;-77
2022/04/01 07:39:34;;;;;;;39.03;18.05;;;460.90;2380.80;;;;;;5072802;28;20040;-76
2022/04/01 07:42:00;;;;;;;49.65;16.95;;;461.30;2380.80;;;;;;5072148;28;20107;-77
2022/04/01 07:44:26;;;;;;;40.83;17.15;;;461.50;2380.80;;;;;;5075611;28;20029;-78
2022/04/01 07:46:52;;;;;;;35.65;17.58;;;461.70;2380.80;;;;;;5072780;28;20373;-78
2022/04/01 07:49:19;;;;;;;45.70;18.77;;;486.40;2380.80;;;;;;5071079;28;20024;-78
2022/04/01 07:51:45;;;;;;;40.45;16.90;;;486.50;2380.80;;;;;;5072450;28;20060;-77
2022/04/01 07:54:12;;;;;;;41.08;15.40;;;461.70;2380.80;;;;;;5072464;28;20464;-76
2022/04/01 07:56:40;;;;;;;32.85;15.65;;;486.70;2380.80;;;;;;5072444;28;20031;-76
2022/04/01 07:59:15;;;;;;;41.22;15.80;;;486.70;2380.80;;;;;;5072317;28;20161;-78
2022/04/01 08:01:41;;;;;;;37.88;15.15;;;486.90;2380.80;;;;;;5072329;28;20491;-77
2022/04/01 08:04:07;;;;;;;43.22;16.48;;;486.50;2380.80;;;;;;5071973;28;20542;-79
2022/04/01 08:06:33;;;;;;;52.67;15.45;;;461.50;2380.80;;;;;;5070944;28;20035;-75
2022/04/01 08:08:59;;;;;;;31.30;12.13;;;461.50;2380.80;;;;;;5072401;28;20480;-77
2022/04/01 08:11:26;;;;;;;30.15;10.48;;;461.30;2380.80;;;;;;5072315;28;20036;-78
2022/04/01 08:13:55;;;;;;;27.67;11.03;;;461.10;2380.80;;;;;;5046674;28;1179096;-77
2022/04/01 08:16:22;;;;;;;20.70;9.63;;;461.30;2380.80;;;;;;5072688;28;20258;-78
2022/04/01 08:18:49;;;;;;;27.58;12.13;;;435.90;2355.20;;;;;;5071626;28;20036;-75
2022/04/01 08:21:15;;;;;;;30.60;15.02;;;410.30;2355.20;;;;;;5072984;28;20472;-75
2022/04/01 08:23:41;;;;;;;26.27;11.48;;;435.30;2355.20;;;;;;5072861;28;20111;-75
2022/04/01 08:26:07;;;;;;;25.67;9.88;;;435.80;2355.20;;;;;;5071429;28;20502;-75
2022/04/01 08:28:33;;;;;;;32.97;10.38;;;436.10;2355.20;;;;;;5072799;28;20017;-77
2022/04/01 08:31:00;;;;;;;31.88;9.75;;;461.00;2380.80;;;;;;5072850;28;20063;-76
2022/04/01 08:33:26;;;;;;;32.83;12.18;;;461.10;2380.80;;;;;;5071534;28;20040;-77
2022/04/01 08:35:51;;;;;;;33.58;12.48;;;461.20;2380.80;;;;;;5072820;28;20032;-77
2022/04/01 08:38:17;;;;;;;29.98;13.23;;;461.30;2380.80;;;;;;5071324;28;20076;-76
2022/04/01 08:40:43;;;;;;;31.30;12.70;;;461.40;2380.80;;;;;;5071435;28;20099;-76
2022/04/01 08:43:09;;;;;;;29.02;10.35;;;461.20;2380.80;;;;;;5072748;28;20031;-76
2022/04/01 08:45:39;;;;;;;28.70;9.77;;;461.40;2380.80;;;;;;5071706;28;20365;-75
2022/04/01 08:48:09;;;;;;;36.25;10.38;;;461.70;2380.80;;;;;;5074703;28;20472;-76
2022/04/01 08:50:35;;;;;;;23.20;9.68;;;486.80;2380.80;;;;;;5070821;28;20033;-77
2022/04/01 08:53:01;;;;;;;23.63;6.93;;;487.20;2380.80;;;;;;5104894;28;20086;-76
2022/04/01 08:55:27;;;;;;;21.38;8.27;;;512.00;2380.80;;;;;;5072350;28;20035;-76
2022/04/01 08:57:53;;;;;;;18.02;7.13;;;512.40;2380.80;;;;;;5072144;28;20444;-77
2022/04/01 09:00:18;;;;;;;20.17;5.55;;;512.10;2380.80;;;;;;5072135;28;20121;-77
2022/04/01 09:02:52;;;;;;;28.98;6.60;;;512.40;2278.40;;;;;;5070754;28;20070;-78
2022/04/01 09:05:20;;;;;;;18.42;5.75;;;538.00;2176.00;;;;;;5072280;28;20029;-77
2022/04/01 09:07:46;;;;;;;8.35;3.17;;;512.50;2150.40;;;;;;5070763;28;20115;-78
2022/04/01 09:10:12;;;;;;;20.05;4.95;;;487.20;2304.00;;;;;;5071878;28;20103;-76
2022/04/01 09:12:49;;;;;;;13.85;5.43;;;487.10;2304.00;;;;;;5067991;28;20495;-76
2022/04/01 09:15:15;;;;;;;32.40;14.32;;;487.00;2227.20;;;;;;5071897;28;20128;-77
2022/04/01 09:17:43;;;;;;;14.23;5.57;;;486.80;2278.40;;;;;;5071509;28;20139;-77
2022/04/01 09:20:10;;;;;;;20.10;9.60;;;486.80;2355.20;;;;;;5070572;28;20472;-77
2022/04/01 09:22:38;;;;;;;21.75;8.57;;;486.50;2380.80;;;;;;5071848;28;20353;-76
2022/04/01 09:25:15;;;;;;;15.82;6.35;;;486.40;2380.80;;;;;;5070628;28;20029;-77
2022/04/01 09:27:46;;;;;;;18.02;5.40;;;461.70;2380.80;;;;;;5070547;28;20032;-76
2022/04/01 09:30:14;;;;;;;15.50;5.10;;;409.90;2355.20;;;;;;5071792;28;20020;-75
2022/04/01 09:32:49;;;;;;;12.02;6.22;;;384.50;2329.60;;;;;;5069846;28;20483;-77
2022/04/01 09:35:15;;;;;;;14.05;5.50;;;359.10;2329.60;;;;;;5070289;28;20040;-76
2022/04/01 09:37:44;;;;;;;8.93;3.47;;;358.70;2329.60;;;;;;5071734;28;20028;-76
2022/04/01 09:40:13;;;;;;;21.05;8.57;;;358.40;2329.60;;;;;;5071738;28;20233;-76
2022/04/01 09:42:47;;;;;;;8.82;3.75;;;358.40;2329.60;;;;;;5071609;28;20032;-76
2022/04/01 09:45:18;;;;;;;11.32;4.18;;;358.50;2329.60;;;;;;5070233;28;20529;-77
2022/04/01 09:47:45;;;;;;;16.65;7.00;;;358.60;2329.60;;;;;;5104010;28;20035;-76
2022/04/01 09:50:16;;;;;;;11.77;4.30;;;358.70;2329.60;;;;;;5105573;28;20032;-76
2022/04/01 09:52:42;;;;;;;9.27;4.22;;;358.90;2329.60;;;;;;5069422;28;20040;-76
2022/04/01 09:55:09;;;;;;;14.73;7.50;;;359.00;2329.60;;;;;;5069680;28;20107;-76
2022/04/01 09:57:35;;;;;;;17.85;7.30;;;359.10;2329.60;;;;;;5071564;28;20031;-76
2022/04/01 10:00:03;;;;;;;12.05;5.90;;;359.30;2329.60;;;;;;5067474;28;20039;-76
2022/04/01 10:02:30;;;;;;;7.93;3.42;;;384.30;2329.60;;;;;;5070619;28;20027;-77
2022/04/01 10:04:58;;;;;;;8.57;3.60;;;384.70;2329.60;;;;;;5071386;28;20468;-77
2022/04/01 10:07:26;;;;;;;7.55;3.40;;;409.70;2355.20;;;;;;5069939;28;20454;-77
2022/04/01 10:09:54;;;;;;;7.43;2.55;;;410.10;2355.20;;;;;;5070011;28;20025;-76
2022/04/01 10:12:26;;;;;;;17.92;9.93;;;435.30;2355.20;;;;;;5068028;28;20048;-76
2022/04/01 10:14:56;;;;;;;29.88;16.27;;;461.10;2380.80;;;;;;5069809;28;20025;-77
2022/04/01 10:17:23;;;;;;;18.63;5.95;;;461.50;2380.80;;;;;;5069862;28;20024;-76
2022/04/01 10:19:50;;;;;;;15.38;7.80;;;486.80;2380.80;;;;;;5069959;28;20116;-76
2022/04/01 10:22:16;;;;;;;12.75;6.47;;;512.40;2380.80;;;;;;5071350;28;20021;-77
2022/04/01 10:24:57;;;;;;;12.25;5.97;;;512.70;2380.80;;;;;;5071398;28;20052;-78
2022/04/01 10:27:40;;;;;;;7.05;4.22;;;537.80;2406.40;;;;;;5069955;28;20028;-76
2022/04/01 10:30:13;;;;;;;8.57;3.50;;;563.50;2304.00;;;;;;5069863;28;20052;-78
2022/04/01 10:32:41;;;;;;;8.30;3.95;;;512.70;2380.80;;;;;;5069589;28;20293;-77
2022/04/01 10:35:19;;;;;;;6.95;2.85;;;487.20;2380.80;;;;;;5071306;28;20464;-77
2022/04/01 10:37:45;;;;;;;9.70;3.72;;;487.20;2380.80;;;;;;5069659;28;20504;-77
2022/04/01 10:40:18;;;;;;;9.90;3.40;;;512.20;2380.80;;;;;;5071133;28;20025;-78
2022/04/01 10:42:45;;;;;;;6.70;3.05;;;512.00;2380.80;;;;;;5071321;28;20031;-78
2022/04/01 10:45:17;;;;;;;12.65;2.50;;;487.10;2380.80;;;;;;5069616;28;20472;-77
2022/04/01 10:53:55;;;;;;;13.20;2.70;;;487.10;2380.80;;;;;;5070508;28;20090;-76
2022/04/01 10:56:24;;;;;;;12.52;3.72;;;487.10;2380.80;;;;;;5070615;28;20024;-76
2022/04/01 10:59:11;;;;;;;4.90;2.38;;;487.30;2201.60;;;;;;5073653;28;20024;-76
2022/04/01 11:02:02;;;;;;;5.47;2.17;;;512.00;2176.00;;;;;;5068645;28;20075;-76
2022/04/01 11:04:35;;;;;;;8.93;3.22;;;512.30;2150.40;;;;;;5072726;28;20043;-77
2022/04/01 11:07:14;;;;;;;7.07;2.85;;;512.30;2099.20;;;;;;5071786;28;20058;-79
2022/04/01 11:09:49;;;;;;;7.35;1.90;;;512.20;2022.40;;;;;;5070249;28;20037;-78
2022/04/01 11:12:14;;;;;;;8.27;2.75;;;512.30;1920.00;;;;;;5107344;28;20036;-78
2022/04/01 11:15:09;;;;;;;21.73;4.45;;;512.30;1894.40;;;;;;5073025;28;20468;-77
2022/04/01 11:17:34;;;;;;;8.98;2.75;;;512.30;1843.20;;;;;;5070536;28;20539;-76
2022/04/01 11:20:02;;;;;;;11.02;2.88;;;512.40;1920.00;;;;;;5071567;28;20107;-76
2022/04/01 11:22:36;;;;;;;5.47;2.85;;;512.80;1817.60;;;;;;5074405;28;20063;-77
2022/04/01 11:25:02;;;;;;;6.45;2.53;;;537.90;1792.00;;;;;;5074113;28;20029;-75
2022/04/01 11:27:28;;;;;;;12.68;2.38;;;563.30;1612.80;;;;;;5106507;28;20086;-77
2022/04/01 11:30:14;;;;;;;10.40;3.75;;;589.60;1484.80;;;;;;5073880;28;20418;-76
2022/04/01 11:32:44;;;;;;;9.45;3.60;;;640.10;1331.20;;;;;;5105348;28;20044;-78
2022/04/01 11:35:13;;;;;;;10.57;2.28;;;665.90;1280.00;;;;;;5073654;28;20028;-76
2022/04/01 11:37:44;;;;;;;12.68;2.15;;;665.80;1254.40;;;;;;5073856;28;20098;-77
2022/04/01 11:40:11;;;;;;;5.15;1.90;;;;;;;;;;5073648;28;20032;-78
2022/04/01 11:42:59;;;;;;;11.93;1.58;;;666.30;1203.20;;;;;;5073196;28;20017;-77
2022/04/01 11:45:26;;;;;;;18.95;3.17;;;640.20;1280.00;;;;;;5071720;28;20498;-76
2022/04/01 11:47:53;;;;;;;7.85;1.88;;;640.20;1254.40;;;;;;5072154;28;20037;-76
2022/04/01 11:50:21;;;;;;;5.32;1.80;;;615.10;1280.00;;;;;;5072163;28;20025;-76
2022/04/01 11:52:49;;;;;;;8.32;3.17;;;640.20;1228.80;;;;;;5073704;28;20032;-77
2022/04/01 11:55:24;;;;;;;9.75;2.78;;;640.50;1203.20;;;;;;5073300;28;20475;-77
2022/04/01 11:57:56;;;;;;;12.95;2.13;;;666.20;1177.60;;;;;;5073476;28;20040;-75
2022/04/01 12:00:25;;;;;;;6.27;1.80;;;640.50;1203.20;;;;;;5069001;28;20121;-77
2022/04/01 12:02:53;;;;;;;4.07;1.52;;;640.80;1203.20;;;;;;5071040;28;20032;-75
2022/04/01 12:05:19;;;;;;;7.13;1.95;;;;;;;;;;5102004;28;20043;-78
2022/04/01 12:10:57;;;;;;;20.70;4.25;;;665.80;1177.60;;;;;;5073133;28;20396;-77
2022/04/01 12:13:25;;;;;;;5.00;1.60;;;691.70;1126.40;;;;;;5072999;28;20045;-77
2022/04/01 12:15:54;;;;;;;5.30;1.90;;;563.40;1484.80;;;;;;5071555;28;20105;-76
2022/04/01 12:18:25;;;;;;;6.40;2.30;;;512.50;1689.60;;;;;;5072213;28;20031;-77
2022/04/01 12:20:54;;;;;;;4.22;2.55;;;512.10;1766.40;;;;;;5073001;28;20029;-75
2022/04/01 12:23:26;;;;;;;3.65;1.80;;;512.00;1740.80;;;;;;5071471;28;20056;-75
2022/04/01 12:25:54;;;;;;;2.17;1.20;;;487.30;1792.00;;;;;;5071483;28;20388;-76
2022/04/01 12:28:23;;;;;;;4.10;2.45;;;487.00;1766.40;;;;;;5071429;28;20104;-75
2022/04/01 12:30:50;;;;;;;15.57;3.55;;;;;;;;;;5072732;28;20024;-76
2022/04/01 12:33:17;;;;;;;2.25;1.00;;;;;;;;;;5071056;28;20075;-76
2022/04/01 12:35:49;;;;;;;2.20;1.10;;;512.00;1766.40;;;;;;5071184;28;20017;-76
2022/04/01 12:38:16;;;;;;;6.00;1.75;;;487.30;1792.00;;;;;;5072790;28;20051;-76
2022/04/01 12:40:44;;;;;;;10.55;2.53;;;487.10;1817.60;;;;;;5072192;28;20031;-75
2022/04/01 12:43:29;;;;;;;8.93;3.30;;;;;;;;;;5071585;28;20028;-75